Time;durP1;ratioP1;P1;durP2;ratioP2;P2;SDS_P1;SDS_P2;PMS_P1;PMS_P2;Temp;Humidity;BMP_temperature;BMP_pressure;BME280_temperature;BME280_humidity;BME280_pressure;Samples;Min_cycle;Max_cycle;Signal;HPM_P1;HPM_P2
2023/10/26 00:01:42;;;;;;;;;;;;;;;18.55;57.49;98718.28;5071797;28;20447;-78
2023/10/26 00:04:07;;;;;;;;;;;;;;;18.46;57.66;98701.88;5071979;28;19923;-76
2023/10/26 00:06:32;;;;;;;;;;;;;;;18.37;57.79;98687.34;5070631;28;19938;-77
2023/10/26 00:08:57;;;;;;;;;;;;;;;18.35;57.80;98676.91;5070706;28;19935;-77
2023/10/26 00:11:23;;;;;;;;;;;;;;;18.32;57.91;98684.59;5072033;28;19932;-77
2023/10/26 00:13:48;;;;;;;;;;;;;;;18.27;57.85;98692.56;5071604;28;19974;-76
2023/10/26 00:16:13;;;;;;;;;;;;;;;18.24;57.97;98693.06;5070316;28;19974;-77
2023/10/26 00:18:39;;;;;;;;;;;;;;;18.26;58.08;98698.94;5070195;28;19912;-77
2023/10/26 00:21:04;;;;;;;;;;;;;;;18.26;57.66;98707.78;5072546;28;19999;-77
2023/10/26 00:23:29;;;;;;;;;;;;;;;18.23;57.98;98697.59;5075893;28;20381;-77
2023/10/26 00:25:55;;;;;;;;;;;;;;;18.20;57.62;98699.94;5074597;28;20316;-77
2023/10/26 00:28:20;;;;;;;;;;;;;;;18.09;57.66;98707.03;5075727;28;20002;-78
2023/10/26 00:30:45;;;;;;;;;;;;;;;18.02;57.93;98703.72;5075558;28;19912;-78
2023/10/26 00:33:11;;;;;;;;;;;;;;;18.01;57.87;98691.41;5075521;28;20389;-77
2023/10/26 00:35:36;;;;;;;;;;;;;;;17.98;57.89;98703.41;5075502;28;19940;-77
2023/10/26 00:38:01;;;;;;;;;;;;;;;17.99;58.02;98710.38;5075422;28;19912;-76
2023/10/26 00:40:27;;;;;;;;;;;;;;;17.99;57.99;98714.91;5074203;28;19912;-76
2023/10/26 00:43:01;;;;;;;;;;;;;;;17.91;58.10;98715.31;5075387;28;19919;-77
2023/10/26 00:45:28;;;;;;;;;;;;;;;17.89;58.04;98723.56;5075215;28;19919;-76
2023/10/26 00:47:53;;;;;;;;;;;;;;;17.89;58.33;98720.09;5075518;28;19921;-77
2023/10/26 00:50:19;;;;;;;;;;;;;;;17.90;58.21;98698.50;5075365;28;19967;-76
2023/10/26 00:52:44;;;;;;;;;;;;;;;17.90;58.23;98677.13;5075414;28;19935;-77
2023/10/26 00:55:10;;;;;;;;;;;;;;;17.91;58.32;98677.94;5075252;28;19940;-76
2023/10/26 00:57:35;;;;;;;;;;;;;;;17.89;58.08;98686.19;5075279;28;19919;-77
2023/10/26 01:00:02;;;;;;;;;;;;;;;17.87;58.22;98698.16;5075181;28;20011;-78
2023/10/26 01:02:28;;;;;;;;;;;;;;;17.87;58.34;98709.66;5075019;28;19919;-77
2023/10/26 01:04:53;;;;;;;;;;;;;;;17.86;57.89;98701.91;5074794;28;20011;-77
2023/10/26 01:07:18;;;;;;;;;;;;;;;17.77;58.08;98706.81;5075169;28;20003;-76
2023/10/26 01:09:44;;;;;;;;;;;;;;;17.76;58.40;98698.00;5073415;28;20404;-77
2023/10/26 01:12:09;;;;;;;;;;;;;;;17.76;58.22;98699.84;5074846;28;19913;-77
2023/10/26 01:14:34;;;;;;;;;;;;;;;17.75;58.23;98687.56;5074764;28;19920;-77
2023/10/26 01:17:00;;;;;;;;;;;;;;;17.75;58.31;98680.34;5073537;28;20442;-77
2023/10/26 01:19:38;;;;;;;;;;;;;;;17.77;58.28;98682.78;5074790;28;19912;-76
2023/10/26 01:22:03;;;;;;;;;;;;;;;17.75;58.60;98666.19;5074740;28;19913;-77
2023/10/26 01:24:29;;;;;;;;;;;;;;;17.70;58.75;98690.16;5075066;28;19924;-76
2023/10/26 01:26:54;;;;;;;;;;;;;;;17.66;58.72;98659.63;5073491;28;20013;-76
2023/10/26 01:29:19;;;;;;;;;;;;;;;17.64;58.80;98677.75;5074703;28;19918;-76
2023/10/26 01:31:44;;;;;;;;;;;;;;;17.59;58.73;98665.16;5074841;28;19959;-77
2023/10/26 01:34:10;;;;;;;;;;;;;;;17.59;58.77;98661.66;5073843;28;19908;-76
2023/10/26 01:36:35;;;;;;;;;;;;;;;17.57;59.13;98685.13;5074915;28;19920;-76
2023/10/26 01:39:00;;;;;;;;;;;;;;;17.56;59.27;98687.00;5074752;28;20381;-77
2023/10/26 01:41:30;;;;;;;;;;;;;;;17.54;59.39;98689.09;5073628;28;19937;-76
2023/10/26 01:43:55;;;;;;;;;;;;;;;17.58;59.40;98676.06;5074723;28;20414;-76
2023/10/26 01:46:21;;;;;;;;;;;;;;;17.59;59.47;98670.47;5074588;28;19912;-77
2023/10/26 01:48:46;;;;;;;;;;;;;;;17.58;59.24;98684.88;5074405;28;19912;-76
2023/10/26 01:51:11;;;;;;;;;;;;;;;17.59;59.23;98693.69;5074330;28;19960;-76
2023/10/26 01:53:36;;;;;;;;;;;;;;;17.56;59.20;98692.31;5073993;28;20305;-76
2023/10/26 01:56:02;;;;;;;;;;;;;;;17.57;59.23;98711.81;5073937;28;20007;-77
2023/10/26 01:58:27;;;;;;;;;;;;;;;17.58;59.51;98703.56;5073957;28;19920;-77
2023/10/26 02:00:53;;;;;;;;;;;;;;;17.54;59.12;98707.78;5073877;28;19919;-76
2023/10/26 02:03:18;;;;;;;;;;;;;;;17.48;59.10;98700.75;5074036;28;20304;-76
2023/10/26 02:05:43;;;;;;;;;;;;;;;17.46;59.04;98697.50;5073697;28;19927;-76
2023/10/26 02:08:08;;;;;;;;;;;;;;;17.41;59.13;98689.41;5073845;28;19951;-76
2023/10/26 02:10:34;;;;;;;;;;;;;;;17.36;58.97;98687.47;5073805;28;19913;-76
2023/10/26 02:13:00;;;;;;;;;;;;;;;17.31;59.04;98691.94;5073748;28;19919;-76
2023/10/26 02:15:25;;;;;;;;;;;;;;;17.25;59.22;98690.22;5073655;28;19955;-76
2023/10/26 02:17:50;;;;;;;;;;;;;;;17.21;59.12;98689.09;5072512;28;19966;-76
2023/10/26 02:20:16;;;;;;;;;;;;;;;17.20;59.25;98687.47;5074410;28;19934;-76
2023/10/26 02:22:41;;;;;;;;;;;;;;;17.24;59.31;98688.63;5074626;28;20397;-77
2023/10/26 02:25:06;;;;;;;;;;;;;;;17.30;59.19;98692.97;5074586;28;19916;-76
2023/10/26 02:27:32;;;;;;;;;;;;;;;17.29;59.02;98692.16;5073565;28;19959;-76
2023/10/26 02:29:57;;;;;;;;;;;;;;;17.25;58.90;98684.91;5073526;28;19916;-76
2023/10/26 02:32:23;;;;;;;;;;;;;;;17.25;58.94;98688.38;5073500;28;19920;-77
2023/10/26 02:34:48;;;;;;;;;;;;;;;17.27;58.96;98688.94;5072208;28;19931;-76
2023/10/26 02:37:13;;;;;;;;;;;;;;;17.21;58.94;98679.22;5072238;28;19916;-77
2023/10/26 02:39:39;;;;;;;;;;;;;;;17.16;58.92;98668.47;5072095;28;20305;-75
2023/10/26 02:42:04;;;;;;;;;;;;;;;17.13;59.16;98677.78;5073475;28;19912;-76
2023/10/26 02:44:29;;;;;;;;;;;;;;;17.15;59.02;98674.88;5073106;28;19923;-77
2023/10/26 02:46:54;;;;;;;;;;;;;;;17.17;59.16;98677.28;5073177;28;19913;-77
2023/10/26 02:49:20;;;;;;;;;;;;;;;17.14;59.21;98686.59;5073171;28;19912;-76
2023/10/26 02:51:45;;;;;;;;;;;;;;;17.05;59.31;98698.66;5073201;28;19913;-77
2023/10/26 02:54:10;;;;;;;;;;;;;;;17.05;59.27;98696.81;5072969;28;19919;-76
2023/10/26 02:56:35;;;;;;;;;;;;;;;17.06;59.36;98693.09;5073091;28;20308;-76
2023/10/26 02:59:01;;;;;;;;;;;;;;;17.05;59.23;98691.47;5071511;28;19965;-77
2023/10/26 03:01:31;;;;;;;;;;;;;;;17.05;59.48;98688.81;5072752;28;19918;-76
2023/10/26 03:03:56;;;;;;;;;;;;;;;17.08;59.23;98701.66;5072892;28;19913;-77
2023/10/26 03:06:21;;;;;;;;;;;;;;;17.01;59.29;98694.88;5072589;28;20393;-77
2023/10/26 03:08:47;;;;;;;;;;;;;;;17.00;59.28;98691.38;5072497;28;19961;-77
2023/10/26 03:11:12;;;;;;;;;;;;;;;16.97;59.56;98694.53;5072395;28;19920;-77
2023/10/26 03:13:37;;;;;;;;;;;;;;;16.98;59.42;98692.69;5072282;28;19912;-78
2023/10/26 03:16:03;;;;;;;;;;;;;;;16.94;59.38;98695.00;5072334;28;19913;-78
2023/10/26 03:18:28;;;;;;;;;;;;;;;16.94;59.29;98688.88;5072564;28;20030;-77
2023/10/26 03:20:53;;;;;;;;;;;;;;;16.90;59.43;98701.06;5072524;28;19919;-77
2023/10/26 03:23:18;;;;;;;;;;;;;;;16.88;59.43;98698.63;5071237;28;20363;-77
2023/10/26 03:25:44;;;;;;;;;;;;;;;16.82;59.75;98704.94;5072438;28;19917;-78
2023/10/26 03:28:09;;;;;;;;;;;;;;;16.77;59.82;98700.31;5072316;28;20309;-77
2023/10/26 03:30:34;;;;;;;;;;;;;;;16.76;59.76;98704.03;5072369;28;19952;-77
2023/10/26 03:33:00;;;;;;;;;;;;;;;16.79;59.66;98697.41;5071051;28;20054;-76
2023/10/26 03:35:25;;;;;;;;;;;;;;;16.84;59.69;98687.66;5072435;28;19913;-78
2023/10/26 03:37:50;;;;;;;;;;;;;;;16.84;59.45;98686.84;5072648;28;19921;-77
2023/10/26 03:40:16;;;;;;;;;;;;;;;16.80;59.67;98693.69;5070951;28;19978;-77
2023/10/26 03:42:41;;;;;;;;;;;;;;;16.79;60.06;98698.22;5072347;28;19938;-77
2023/10/26 03:45:06;;;;;;;;;;;;;;;16.77;59.87;98683.50;5071984;28;20313;-77
2023/10/26 03:47:32;;;;;;;;;;;;;;;16.72;60.07;98688.75;5072207;28;19912;-77
2023/10/26 03:49:57;;;;;;;;;;;;;;;16.75;59.92;98696.25;5072231;28;19919;-77
2023/10/26 03:52:22;;;;;;;;;;;;;;;16.81;60.19;98685.47;5070767;28;20373;-76
2023/10/26 03:54:48;;;;;;;;;;;;;;;16.85;60.08;98672.47;5071989;28;19919;-76
2023/10/26 03:57:13;;;;;;;;;;;;;;;16.87;59.84;98672.22;5071394;28;19920;-77
2023/10/26 03:59:38;;;;;;;;;;;;;;;16.84;60.35;98663.66;5071894;28;19919;-77
2023/10/26 04:02:04;;;;;;;;;;;;;;;16.85;60.01;98653.78;5071938;28;20405;-77
2023/10/26 04:04:29;;;;;;;;;;;;;;;16.89;60.00;98657.59;5070533;28;19921;-76
2023/10/26 04:06:54;;;;;;;;;;;;;;;16.94;60.06;98664.88;5071886;28;20025;-77
2023/10/26 04:09:19;;;;;;;;;;;;;;;16.99;60.18;98662.28;5071810;28;19912;-76
2023/10/26 04:11:45;;;;;;;;;;;;;;;17.02;60.15;98664.47;5071854;28;19999;-77
2023/10/26 04:14:10;;;;;;;;;;;;;;;17.03;60.17;98672.25;5072277;28;20373;-77
2023/10/26 04:16:35;;;;;;;;;;;;;;;17.05;60.15;98680.81;5071947;28;19916;-76
2023/10/26 04:19:01;;;;;;;;;;;;;;;17.07;60.03;98684.03;5070764;28;19924;-76
2023/10/26 04:21:26;;;;;;;;;;;;;;;17.08;59.45;98683.00;5071747;28;19970;-78
2023/10/26 04:23:51;;;;;;;;;;;;;;;17.07;59.81;98669.91;5071533;28;19905;-77
2023/10/26 04:26:16;;;;;;;;;;;;;;;17.07;59.93;98657.38;5071573;28;19912;-77
2023/10/26 04:28:42;;;;;;;;;;;;;;;17.10;59.63;98646.25;5070462;28;19913;-77
2023/10/26 04:31:07;;;;;;;;;;;;;;;17.13;59.62;98620.94;5071564;28;19912;-78
2023/10/26 04:33:32;;;;;;;;;;;;;;;17.11;59.93;98618.53;5070270;28;20407;-77
2023/10/26 04:35:59;;;;;;;;;;;;;;;17.12;60.06;98611.34;5071529;28;19912;-77
2023/10/26 04:38:24;;;;;;;;;;;;;;;17.11;60.33;98621.19;5072019;28;19912;-78
2023/10/26 04:40:50;;;;;;;;;;;;;;;17.11;60.16;98631.06;5071686;28;19924;-77
2023/10/26 04:43:15;;;;;;;;;;;;;;;17.15;60.86;98621.53;5071713;28;19967;-77
2023/10/26 04:45:40;;;;;;;;;;;;;;;17.17;60.71;98602.59;5071530;28;19917;-77
2023/10/26 04:48:05;;;;;;;;;;;;;;;17.14;60.57;98602.03;5070159;28;19919;-77
2023/10/26 04:50:31;;;;;;;;;;;;;;;17.12;60.50;98620.16;5072169;28;19912;-77
2023/10/26 04:52:57;;;;;;;;;;;;;;;17.09;60.42;98620.63;5071663;28;19991;-77
2023/10/26 04:55:23;;;;;;;;;;;;;;;17.08;60.83;98610.97;5066433;28;20393;-77
2023/10/26 04:57:48;;;;;;;;;;;;;;;17.12;60.96;98619.34;5050133;28;19913;-77
2023/10/26 05:00:13;;;;;;;;;;;;;;;17.14;60.77;98619.91;5051396;28;20004;-76
2023/10/26 05:02:40;;;;;;;;;;;;;;;17.15;61.11;98625.00;5051453;28;19920;-76
2023/10/26 05:05:05;;;;;;;;;;;;;;;17.20;60.95;98623.47;5050979;28;19924;-77
2023/10/26 05:07:31;;;;;;;;;;;;;;;17.25;60.71;98626.19;5052873;28;19966;-76
2023/10/26 05:09:56;;;;;;;;;;;;;;;17.31;61.15;98625.22;5054777;28;19916;-76
2023/10/26 05:12:22;;;;;;;;;;;;;;;17.36;61.58;98620.78;5059931;28;19917;-76
2023/10/26 05:14:47;;;;;;;;;;;;;;;17.45;62.75;98605.16;5054428;28;20404;-76
2023/10/26 05:17:12;;;;;;;;;;;;;;;17.54;63.00;98597.53;5055344;28;19909;-76
2023/10/26 05:19:37;;;;;;;;;;;;;;;17.65;62.47;98624.13;5060208;28;20384;-76
2023/10/26 05:22:03;;;;;;;;;;;;;;;17.74;62.09;98627.22;5075122;28;19916;-77
2023/10/26 05:24:29;;;;;;;;;;;;;;;17.74;60.82;98625.34;5062495;28;19931;-76
2023/10/26 05:26:54;;;;;;;;;;;;;;;17.71;60.68;98623.16;5056391;28;20287;-77
2023/10/26 05:29:19;;;;;;;;;;;;;;;17.73;60.98;98622.91;5058691;28;19917;-78
2023/10/26 05:31:45;;;;;;;;;;;;;;;17.76;60.74;98625.09;5070382;28;19912;-77
2023/10/26 05:34:11;;;;;;;;;;;;;;;17.79;60.82;98629.94;5069751;28;21018;-75
2023/10/26 05:36:36;;;;;;;;;;;;;;;17.86;64.03;98617.25;5056640;28;19916;-75
2023/10/26 05:39:01;;;;;;;;;;;;;;;17.94;61.98;98616.81;5055510;28;19916;-76
2023/10/26 05:41:26;;;;;;;;;;;;;;;18.05;62.19;98612.41;5055621;28;19970;-75
2023/10/26 05:43:52;;;;;;;;;;;;;;;18.17;61.95;98620.28;5055729;28;20432;-76
2023/10/26 05:46:18;;;;;;;;;;;;;;;18.28;62.22;98622.81;5054156;28;19944;-75
2023/10/26 05:48:43;;;;;;;;;;;;;;;18.37;62.51;98615.16;5054482;28;19913;-76
2023/10/26 05:51:08;;;;;;;;;;;;;;;18.45;61.56;98609.38;5055467;28;19924;-77
2023/10/26 05:53:34;;;;;;;;;;;;;;;18.52;63.04;98619.88;5060529;28;19980;-76
2023/10/26 05:55:59;;;;;;;;;;;;;;;18.62;63.06;98628.84;5063992;28;19921;-76
2023/10/26 05:58:25;;;;;;;;;;;;;;;18.73;63.84;98633.25;5070781;28;19923;-77
2023/10/26 06:00:51;;;;;;;;;;;;;;;18.87;64.21;98638.19;5073515;28;19920;-76
2023/10/26 06:03:16;;;;;;;;;;;;;;;18.96;63.33;98639.34;5073562;28;19916;-77
2023/10/26 06:05:41;;;;;;;;;;;;;;;19.03;63.13;98635.38;5063569;28;21043;-77
2023/10/26 06:08:06;;;;;;;;;;;;;;;19.09;63.14;98646.94;5059482;28;20393;-76
2023/10/26 06:10:32;;;;;;;;;;;;;;;19.14;63.96;98646.16;5055623;28;19917;-77
2023/10/26 06:12:57;;;;;;;;;;;;;;;19.19;63.64;98636.31;5071351;28;20385;-77
2023/10/26 06:15:22;;;;;;;;;;;;;;;19.27;63.85;98646.53;5066559;28;19917;-76
2023/10/26 06:17:48;;;;;;;;;;;;;;;19.33;63.68;98656.25;5073483;28;19912;-77
2023/10/26 06:20:13;;;;;;;;;;;;;;;19.35;63.38;98656.00;5075010;28;19916;-77
2023/10/26 06:22:38;;;;;;;;;;;;;;;19.37;63.13;98659.22;5073212;28;20347;-76
2023/10/26 06:25:05;;;;;;;;;;;;;;;19.32;62.40;98654.66;5068082;28;19932;-77
2023/10/26 06:27:30;;;;;;;;;;;;;;;19.32;62.22;98657.31;5070663;28;19916;-77
2023/10/26 06:29:57;;;;;;;;;;;;;;;19.33;62.15;98655.44;5069032;28;20472;-77
2023/10/26 06:32:22;;;;;;;;;;;;;;;19.35;62.26;98672.88;5072466;28;20393;-76
2023/10/26 06:34:47;;;;;;;;;;;;;;;19.38;63.17;98692.16;5072694;28;20125;-76
2023/10/26 06:37:13;;;;;;;;;;;;;;;19.34;62.66;98691.88;5071281;28;19956;-77
2023/10/26 06:39:38;;;;;;;;;;;;;;;19.30;63.41;98698.75;5071219;28;20319;-77
2023/10/26 06:42:03;;;;;;;;;;;;;;;19.29;62.99;98691.78;5071275;28;19923;-77
2023/10/26 06:44:29;;;;;;;;;;;;;;;19.31;62.79;98695.81;5070860;28;19928;-77
2023/10/26 06:46:54;;;;;;;;;;;;;;;19.34;62.45;98710.59;5071195;28;19919;-77
2023/10/26 06:49:19;;;;;;;;;;;;;;;19.38;62.53;98701.00;5069786;28;19961;-77
2023/10/26 06:51:44;;;;;;;;;;;;;;;19.41;62.83;98713.06;5072766;28;19924;-77
2023/10/26 06:54:10;;;;;;;;;;;;;;;19.44;62.91;98712.53;5073018;28;20416;-76
2023/10/26 06:56:36;;;;;;;;;;;;;;;19.48;63.16;98721.69;5073007;28;19958;-77
2023/10/26 06:59:02;;;;;;;;;;;;;;;19.52;62.63;98723.63;5073287;28;19992;-77
2023/10/26 07:01:27;;;;;;;;;;;;;;;19.56;62.15;98727.41;5074711;28;20380;-77
2023/10/26 07:03:52;;;;;;;;;;;;;;;19.53;61.38;98741.31;5074738;28;19912;-77
2023/10/26 07:06:18;;;;;;;;;;;;;;;19.54;61.20;98737.56;5074435;28;19927;-77
2023/10/26 07:08:44;;;;;;;;;;;;;;;19.53;60.01;98741.31;5071328;28;19917;-76
2023/10/26 07:11:09;;;;;;;;;;;;;;;19.48;59.94;98748.47;5072587;28;19978;-77
2023/10/26 07:13:34;;;;;;;;;;;;;;;19.38;59.67;98743.81;5071108;28;19920;-77
2023/10/26 07:16:00;;;;;;;;;;;;;;;19.35;59.52;98744.34;5073709;28;20023;-76
2023/10/26 07:18:26;;;;;;;;;;;;;;;19.31;59.71;98753.91;5075356;28;19913;-77
2023/10/26 07:20:51;;;;;;;;;;;;;;;19.31;59.82;98761.94;5073238;28;19939;-77
2023/10/26 07:23:17;;;;;;;;;;;;;;;19.31;59.21;98769.97;5072435;28;20141;-76
2023/10/26 07:25:42;;;;;;;;;;;;;;;19.26;58.66;98770.72;5071478;28;19917;-77
2023/10/26 07:28:08;;;;;;;;;;;;;;;19.26;58.75;98764.56;5072701;28;19912;-77
2023/10/26 07:30:38;;;;;;;;;;;;;;;19.24;58.88;98766.69;5071376;28;19932;-77
2023/10/26 07:33:03;;;;;;;;;;;;;;;19.20;58.87;98747.66;5072454;28;19908;-77
2023/10/26 07:35:28;;;;;;;;;;;;;;;19.14;58.67;98750.53;5072659;28;20459;-77
2023/10/26 07:37:53;;;;;;;;;;;;;;;19.05;58.79;98737.59;5070999;28;19955;-77
2023/10/26 07:40:19;;;;;;;;;;;;;;;19.00;59.01;98732.22;5072645;28;19916;-77
2023/10/26 07:42:44;;;;;;;;;;;;;;;19.02;59.26;98715.91;5072615;28;19963;-77
2023/10/26 07:45:09;;;;;;;;;;;;;;;19.05;59.07;98713.53;5070874;28;20407;-77
2023/10/26 07:47:34;;;;;;;;;;;;;;;19.12;59.14;98715.19;5072192;28;19913;-77
2023/10/26 07:50:00;;;;;;;;;;;;;;;19.16;58.86;98703.72;5071799;28;20378;-76
2023/10/26 07:52:25;;;;;;;;;;;;;;;19.14;58.74;98708.53;5072018;28;19912;-76
2023/10/26 07:54:50;;;;;;;;;;;;;;;19.12;58.88;98721.34;5072327;28;19981;-77
2023/10/26 07:57:16;;;;;;;;;;;;;;;19.12;58.84;98709.84;5072243;28;19937;-77
2023/10/26 07:59:41;;;;;;;;;;;;;;;19.09;59.05;98683.59;5072301;28;19912;-77
2023/10/26 08:02:07;;;;;;;;;;;;;;;19.11;59.02;98666.22;5072295;28;20406;-77
2023/10/26 08:04:32;;;;;;;;;;;;;;;19.12;59.21;98672.38;5071824;28;19924;-76
2023/10/26 08:06:59;;;;;;;;;;;;;;;19.14;59.18;98662.22;5070592;28;19919;-77
2023/10/26 08:09:28;;;;;;;;;;;;;;;19.18;59.33;98657.97;5071694;28;20000;-77
2023/10/26 08:11:53;;;;;;;;;;;;;;;19.18;59.86;98653.44;5071876;28;19929;-77
2023/10/26 08:14:18;;;;;;;;;;;;;;;19.20;60.60;98645.16;5072057;28;20366;-76
2023/10/26 08:16:43;;;;;;;;;;;;;;;19.21;60.31;98638.72;5070628;28;19967;-77
2023/10/26 08:19:09;;;;;;;;;;;;;;;19.23;60.74;98652.66;5071940;28;19922;-76
2023/10/26 08:21:34;;;;;;;;;;;;;;;19.22;60.59;98646.50;5071949;28;19916;-77
2023/10/26 08:23:59;;;;;;;;;;;;;;;19.26;60.16;98654.84;5071856;28;19919;-77
2023/10/26 08:26:24;;;;;;;;;;;;;;;19.27;60.01;98657.25;5071658;28;19919;-76
2023/10/26 08:28:50;;;;;;;;;;;;;;;19.29;59.92;98671.19;5071441;28;20340;-77
2023/10/26 08:31:15;;;;;;;;;;;;;;;19.33;59.51;98671.50;5070362;28;19912;-77
2023/10/26 08:33:40;;;;;;;;;;;;;;;19.38;59.37;98673.41;5070106;28;20004;-78
2023/10/26 08:36:06;;;;;;;;;;;;;;;19.46;59.29;98670.25;5071664;28;19935;-77
2023/10/26 08:38:32;;;;;;;;;;;;;;;19.50;59.25;98690.09;5071638;28;20051;-76
2023/10/26 08:40:57;;;;;;;;;;;;;;;19.52;58.97;98699.53;5071545;28;19939;-77
2023/10/26 08:43:23;;;;;;;;;;;;;;;19.59;58.71;98700.13;5074994;28;20405;-76
2023/10/26 08:45:50;;;;;;;;;;;;;;;19.62;58.47;98702.28;5075500;28;20305;-77
2023/10/26 08:48:16;;;;;;;;;;;;;;;19.64;58.35;98704.69;5071198;28;19916;-78
2023/10/26 08:50:42;;;;;;;;;;;;;;;19.66;58.34;98702.56;5064045;28;19917;-76
2023/10/26 08:53:08;;;;;;;;;;;;;;;19.70;58.28;98708.22;5056526;28;19921;-76
2023/10/26 08:55:34;;;;;;;;;;;;;;;19.71;58.20;98713.31;5053999;28;20086;-77
2023/10/26 08:58:02;;;;;;;;;;;;;;;19.73;58.15;98710.38;5057412;28;19924;-75
2023/10/26 09:00:31;;;;;;;;;;;;;;;19.77;58.18;98717.66;5070330;28;19912;-76
2023/10/26 09:02:56;;;;;;;;;;;;;;;19.80;58.19;98719.00;5066607;28;19995;-76
2023/10/26 09:05:22;;;;;;;;;;;;;;;19.80;58.13;98708.28;5075362;28;19963;-76
2023/10/26 09:07:47;;;;;;;;;;;;;;;19.77;58.13;98709.59;5075979;28;20015;-76
2023/10/26 09:10:12;;;;;;;;;;;;;;;19.81;58.06;98700.00;5073432;28;19924;-77
2023/10/26 09:12:38;;;;;;;;;;;;;;;19.85;58.05;98700.28;5065728;28;20427;-75
2023/10/26 09:15:06;;;;;;;;;;;;;;;19.90;58.03;98703.78;5073798;28;19920;-77
2023/10/26 09:17:31;;;;;;;;;;;;;;;19.96;58.01;98704.63;5061994;28;19917;-77
2023/10/26 09:19:57;;;;;;;;;;;;;;;20.00;57.81;98711.09;5071541;28;19923;-76
2023/10/26 09:22:48;;;;;;;;;;;;;;;20.03;58.00;98712.44;5064377;28;19917;-76
2023/10/26 09:25:14;;;;;;;;;;;;;;;20.06;58.15;98726.13;5053582;28;20309;-77
2023/10/26 09:27:43;;;;;;;;;;;;;;;20.08;57.84;98723.22;5070340;28;19948;-76
2023/10/26 09:30:25;;;;;;;;;;;;;;;20.07;57.84;98718.94;5072230;28;20037;-76
2023/10/26 09:32:50;;;;;;;;;;;;;;;20.07;57.87;98717.06;5059280;28;20297;-75
2023/10/26 09:35:26;;;;;;;;;;;;;;;20.09;57.90;98722.16;5075970;28;19919;-77
2023/10/26 09:37:51;;;;;;;;;;;;;;;20.06;57.66;98717.28;5074648;28;20286;-77
2023/10/26 09:40:17;;;;;;;;;;;;;;;20.05;58.27;98703.06;5069408;28;19978;-76
2023/10/26 09:42:42;;;;;;;;;;;;;;;20.07;58.08;98698.28;5063494;28;19917;-77
2023/10/26 09:45:08;;;;;;;;;;;;;;;20.12;57.94;98697.50;5060997;28;19967;-78
2023/10/26 09:47:33;;;;;;;;;;;;;;;20.15;57.62;98687.06;5069015;28;20399;-77
2023/10/26 09:49:59;;;;;;;;;;;;;;;20.20;57.70;98686.28;5055625;28;19940;-77
2023/10/26 09:52:24;;;;;;;;;;;;;;;20.24;57.37;98684.69;5067747;28;19999;-76
2023/10/26 09:54:49;;;;;;;;;;;;;;;20.25;57.36;98695.16;5064277;28;20019;-77
2023/10/26 09:57:27;;;;;;;;;;;;;;;20.24;57.64;98701.59;5063174;28;19913;-77
2023/10/26 09:59:53;;;;;;;;;;;;;;;20.26;57.55;98694.09;5074134;28;19916;-76
2023/10/26 10:02:19;;;;;;;;;;;;;;;20.29;57.49;98692.75;5073763;28;19948;-76
2023/10/26 10:04:44;;;;;;;;;;;;;;;20.34;57.60;98691.97;5073813;28;19963;-77
2023/10/26 10:07:15;;;;;;;;;;;;;;;20.41;57.40;98679.16;5080455;28;19916;-77
2023/10/26 10:09:59;;;;;;;;;;;;;;;20.47;57.39;98670.88;5086094;28;19916;-77
2023/10/26 10:12:24;;;;;;;;;;;;;;;20.51;57.15;98668.47;5071578;28;19996;-76
2023/10/26 10:14:54;;;;;;;;;;;;;;;20.53;57.68;98664.47;5072644;28;19956;-77
2023/10/26 10:17:43;;;;;;;;;;;;;;;20.55;57.21;98664.19;5061532;28;19960;-77
2023/10/26 10:20:27;;;;;;;;;;;;;;;20.60;57.15;98665.00;5073723;28;19913;-77
2023/10/26 10:22:53;;;;;;;;;;;;;;;20.65;56.96;98658.06;5071886;28;20023;-77
2023/10/26 10:25:19;;;;;;;;;;;;;;;20.70;56.46;98645.44;5068787;28;19981;-76
2023/10/26 10:27:48;;;;;;;;;;;;;;;20.72;56.66;98643.31;5066582;28;19995;-77
2023/10/26 10:30:13;;;;;;;;;;;;;;;20.74;56.85;98641.16;5069580;28;19973;-76
2023/10/26 10:32:47;;;;;;;;;;;;;;;20.76;56.60;98649.75;5071359;28;19916;-77
2023/10/26 10:35:14;;;;;;;;;;;;;;;20.78;56.69;98655.66;5074343;28;19916;-77
2023/10/26 10:37:59;;;;;;;;;;;;;;;20.79;56.46;98656.47;5070292;28;19986;-76
2023/10/26 10:40:25;;;;;;;;;;;;;;;20.77;56.34;98661.28;5053637;28;19996;-76
2023/10/26 10:42:51;;;;;;;;;;;;;;;20.75;56.61;98656.19;5061273;28;20436;-77
2023/10/26 10:45:17;;;;;;;;;;;;;;;20.75;56.62;98663.44;5070538;28;19920;-77
2023/10/26 10:47:43;;;;;;;;;;;;;;;20.75;56.60;98647.34;5070760;28;19963;-77
2023/10/26 10:50:15;;;;;;;;;;;;;;;20.69;56.82;98643.84;5072668;28;20316;-77
2023/10/26 10:52:40;;;;;;;;;;;;;;;20.71;56.72;98638.22;5065900;28;19924;-76
2023/10/26 10:55:06;;;;;;;;;;;;;;;20.68;56.91;98641.44;5070794;28;20301;-77
2023/10/26 10:57:31;;;;;;;;;;;;;;;20.65;57.55;98648.13;5069175;28;19917;-76
2023/10/26 10:59:56;;;;;;;;;;;;;;;20.63;57.56;98645.72;5070535;28;20388;-77
2023/10/26 11:02:21;;;;;;;;;;;;;;;20.60;58.13;98630.16;5067420;28;19916;-77
2023/10/26 11:04:54;;;;;;;;;;;;;;;20.61;58.14;98620.22;5072231;28;19920;-76
2023/10/26 11:07:23;;;;;;;;;;;;;;;20.62;57.33;98611.91;5068194;28;20022;-76
2023/10/26 11:09:49;;;;;;;;;;;;;;;20.62;58.34;98597.69;5060020;28;20435;-76
2023/10/26 11:12:15;;;;;;;;;;;;;;;20.65;57.89;98582.94;5065086;28;19927;-77
2023/10/26 11:14:49;;;;;;;;;;;;;;;20.67;57.89;98594.22;5067023;28;19933;-75
2023/10/26 11:17:18;;;;;;;;;;;;;;;20.67;57.69;98578.13;5068662;28;19982;-76
2023/10/26 11:19:44;;;;;;;;;;;;;;;20.70;57.92;98572.22;5072782;28;20000;-76
2023/10/26 11:22:11;;;;;;;;;;;;;;;20.74;58.69;98565.25;5072148;28;19923;-76
2023/10/26 11:24:37;;;;;;;;;;;;;;;20.80;58.17;98558.81;5072353;28;19917;-76
2023/10/26 11:27:09;;;;;;;;;;;;;;;20.84;57.86;98559.91;5068318;28;20324;-77
2023/10/26 11:29:35;;;;;;;;;;;;;;;20.90;57.67;98558.84;5063972;28;20003;-76
2023/10/26 11:32:00;;;;;;;;;;;;;;;20.88;57.85;98569.84;5072820;28;19966;-77
2023/10/26 11:34:27;;;;;;;;;;;;;;;20.86;57.80;98561.25;5054706;28;19921;-76
2023/10/26 11:36:53;;;;;;;;;;;;;;;20.82;58.40;98544.09;5052155;28;19917;-76
2023/10/26 11:39:18;;;;;;;;;;;;;;;20.83;58.05;98540.34;5068986;28;19917;-74
2023/10/26 11:41:54;;;;;;;;;;;;;;;20.91;57.69;98531.75;5068460;28;19928;-75
2023/10/26 11:44:23;;;;;;;;;;;;;;;20.85;58.06;98532.81;5061562;28;19916;-75
2023/10/26 11:46:55;;;;;;;;;;;;;;;20.88;57.57;98524.22;5062674;28;19923;-75
2023/10/26 11:49:20;;;;;;;;;;;;;;;20.88;56.78;98518.88;5059810;28;20007;-76
2023/10/26 11:51:46;;;;;;;;;;;;;;;20.93;57.24;98518.84;5063572;28;20373;-77
2023/10/26 11:54:12;;;;;;;;;;;;;;;20.97;56.90;98527.16;5071055;28;19974;-77
2023/10/26 11:56:37;;;;;;;;;;;;;;;21.00;56.69;98513.22;5060109;28;20408;-76
2023/10/26 11:59:02;;;;;;;;;;;;;;;21.10;56.57;98528.50;5051779;28;19917;-75
2023/10/26 12:01:28;;;;;;;;;;;;;;;21.09;56.14;98506.22;5052873;28;19917;-75
2023/10/26 12:03:53;;;;;;;;;;;;;;;21.11;55.87;98497.91;5061312;28;19939;-74
2023/10/26 12:06:18;;;;;;;;;;;;;;;21.16;56.00;98495.19;5065520;28;19927;-75
2023/10/26 12:08:43;;;;;;;;;;;;;;;21.17;55.64;98484.19;5051543;28;19931;-78
2023/10/26 12:11:09;;;;;;;;;;;;;;;21.23;55.86;98491.19;5057204;28;20010;-77
2023/10/26 12:13:35;;;;;;;;;;;;;;;21.25;55.47;98497.09;5067090;28;19927;-76
2023/10/26 12:16:01;;;;;;;;;;;;;;;21.26;55.65;98487.16;5068156;28;20464;-76
2023/10/26 12:18:27;;;;;;;;;;;;;;;21.27;55.62;98483.38;5052808;28;19917;-76
2023/10/26 12:20:52;;;;;;;;;;;;;;;21.31;55.58;98479.06;5061051;28;20011;-76
2023/10/26 12:23:17;;;;;;;;;;;;;;;21.30;55.68;98484.72;5069928;28;19923;-76
2023/10/26 12:25:43;;;;;;;;;;;;;;;21.30;55.55;98485.53;5065604;28;19920;-76
2023/10/26 12:28:08;;;;;;;;;;;;;;;21.36;55.52;98487.13;5057077;28;20000;-76
2023/10/26 12:30:33;;;;;;;;;;;;;;;21.39;55.60;98493.81;5062542;28;19926;-76
2023/10/26 12:32:58;;;;;;;;;;;;;;;21.40;55.69;98492.75;5065880;28;19917;-76
2023/10/26 12:35:24;;;;;;;;;;;;;;;21.41;55.59;98492.47;5070864;28;19912;-76
2023/10/26 12:37:49;;;;;;;;;;;;;;;21.44;55.54;98489.22;5071281;28;20068;-75
2023/10/26 12:40:14;;;;;;;;;;;;;;;21.43;55.45;98489.50;5066272;28;20659;-76
2023/10/26 12:42:40;;;;;;;;;;;;;;;21.41;55.60;98487.09;5071436;28;20012;-77